Bainbridge, New York
Current Conditions -  °F | °C
As of 3:53 AM on Sunday 23 Nov 2014 (Local Time) from KBGM Reporting Station
Light Rain Light Rain  
Wind Chill: 35°   Ceiling: 3800
Heat Index: 40°   Visibility: 10mi
Dew Point: 30°   Wind: 7mph
Humidity: 68%   Direction: 210°SSW
Pressure: 30.06"   Gusts: NA
Location:  42.29°N, 75.48°W
Report Text: KBGM 230853Z AUTO 21006KT 10SM -RA OVC038 04/M01 A3006 RMK AO2 RAB35 SLP191 P0000 60000 T00441011 58001
Loading
Personal Weather Stations






























Interactive Weather Map New forecast layout! Learn more

10-Day Weather Forecast

Advertisements
Track Severe Weather on mobile